sensor_id;sensor_type;location;lat;lon;timestamp;pressure;altitude;pressure_sealevel;temperature;humidity
69027;BME280;56080;47.594;19.116;2023-03-19T00:06:07;100668;;;5.30;69.03
69027;BME280;56080;47.594;19.116;2023-03-19T00:16:07;100661;;;5.23;69.90
69027;BME280;56080;47.594;19.116;2023-03-19T00:26:07;100656;;;5.18;69.45
69027;BME280;56080;47.594;19.116;2023-03-19T00:36:08;100649;;;4.88;69.81
69027;BME280;56080;47.594;19.116;2023-03-19T00:46:08;100641;;;4.70;71.70
69027;BME280;56080;47.594;19.116;2023-03-19T00:56:10;100638;;;4.88;71.68
69027;BME280;56080;47.594;19.116;2023-03-19T01:06:10;100624;;;4.62;70.83
69027;BME280;56080;47.594;19.116;2023-03-19T01:16:09;100638;;;4.77;70.39
69027;BME280;56080;47.594;19.116;2023-03-19T01:26:10;100635;;;4.84;69.79
69027;BME280;56080;47.594;19.116;2023-03-19T01:36:10;100634;;;4.66;69.80
69027;BME280;56080;47.594;19.116;2023-03-19T01:46:15;100636;;;4.52;70.35
69027;BME280;56080;47.594;19.116;2023-03-19T02:06:12;100637;;;4.21;72.33
69027;BME280;56080;47.594;19.116;2023-03-19T02:16:13;100629;;;3.80;72.50
69027;BME280;56080;47.594;19.116;2023-03-19T02:26:13;100632;;;3.79;73.70
69027;BME280;56080;47.594;19.116;2023-03-19T02:36:13;100618;;;3.52;75.53
69027;BME280;56080;47.594;19.116;2023-03-19T02:46:12;100626;;;3.38;75.82
69027;BME280;56080;47.594;19.116;2023-03-19T02:56:12;100616;;;3.42;76.86
69027;BME280;56080;47.594;19.116;2023-03-19T03:06:13;100621;;;3.17;76.55
69027;BME280;56080;47.594;19.116;2023-03-19T03:16:14;100634;;;3.66;76.70
69027;BME280;56080;47.594;19.116;2023-03-19T03:26:13;100622;;;3.64;77.24
69027;BME280;56080;47.594;19.116;2023-03-19T03:36:13;100624;;;3.66;78.89
69027;BME280;56080;47.594;19.116;2023-03-19T03:46:14;100619;;;3.71;80.14
69027;BME280;56080;47.594;19.116;2023-03-19T03:56:14;100624;;;3.54;80.51
69027;BME280;56080;47.594;19.116;2023-03-19T04:06:15;100630;;;3.52;80.45
69027;BME280;56080;47.594;19.116;2023-03-19T04:16:15;100633;;;3.34;80.84
69027;BME280;56080;47.594;19.116;2023-03-19T04:26:15;100625;;;2.94;83.69
69027;BME280;56080;47.594;19.116;2023-03-19T04:36:16;100611;;;3.11;82.64
69027;BME280;56080;47.594;19.116;2023-03-19T04:46:15;100607;;;3.19;81.40
69027;BME280;56080;47.594;19.116;2023-03-19T04:56:16;100612;;;2.84;79.68
69027;BME280;56080;47.594;19.116;2023-03-19T05:06:16;100620;;;2.93;80.65
69027;BME280;56080;47.594;19.116;2023-03-19T05:16:16;100627;;;2.84;81.47
69027;BME280;56080;47.594;19.116;2023-03-19T05:26:17;100625;;;2.98;81.66
69027;BME280;56080;47.594;19.116;2023-03-19T05:36:18;100638;;;3.13;81.30
69027;BME280;56080;47.594;19.116;2023-03-19T05:46:17;100650;;;3.02;80.81
69027;BME280;56080;47.594;19.116;2023-03-19T05:56:17;100666;;;3.14;80.14
69027;BME280;56080;47.594;19.116;2023-03-19T06:06:18;100657;;;3.11;80.65
69027;BME280;56080;47.594;19.116;2023-03-19T06:16:17;100662;;;3.46;79.32
69027;BME280;56080;47.594;19.116;2023-03-19T06:26:18;100678;;;3.67;78.66
69027;BME280;56080;47.594;19.116;2023-03-19T06:36:18;100670;;;3.97;77.19
69027;BME280;56080;47.594;19.116;2023-03-19T06:46:18;100680;;;4.39;75.61
69027;BME280;56080;47.594;19.116;2023-03-19T06:56:18;100693;;;4.83;73.71
69027;BME280;56080;47.594;19.116;2023-03-19T07:06:19;100694;;;5.26;72.22
69027;BME280;56080;47.594;19.116;2023-03-19T07:16:20;100688;;;5.61;68.26
69027;BME280;56080;47.594;19.116;2023-03-19T07:26:20;100681;;;6.10;62.99
69027;BME280;56080;47.594;19.116;2023-03-19T07:36:20;100676;;;6.55;60.69
69027;BME280;56080;47.594;19.116;2023-03-19T07:46:20;100664;;;7.01;57.26
69027;BME280;56080;47.594;19.116;2023-03-19T08:06:22;100655;;;7.85;51.03
69027;BME280;56080;47.594;19.116;2023-03-19T08:16:22;100651;;;8.26;49.33
69027;BME280;56080;47.594;19.116;2023-03-19T08:26:22;100637;;;9.98;45.69
69027;BME280;56080;47.594;19.116;2023-03-19T08:36:23;100644;;;11.27;41.94
69027;BME280;56080;47.594;19.116;2023-03-19T08:46:25;100646;;;11.69;40.26
69027;BME280;56080;47.594;19.116;2023-03-19T08:56:24;100633;;;13.00;38.13
69027;BME280;56080;47.594;19.116;2023-03-19T09:06:26;100625;;;13.01;38.31
69027;BME280;56080;47.594;19.116;2023-03-19T09:16:27;100620;;;12.86;38.41
69027;BME280;56080;47.594;19.116;2023-03-19T09:26:27;100620;;;12.96;37.56
69027;BME280;56080;47.594;19.116;2023-03-19T09:36:28;100624;;;13.02;37.78
69027;BME280;56080;47.594;19.116;2023-03-19T09:56:31;100595;;;12.87;37.44
69027;BME280;56080;47.594;19.116;2023-03-19T10:06:33;100590;;;12.96;36.54
69027;BME280;56080;47.594;19.116;2023-03-19T10:16:33;100593;;;12.95;36.80
69027;BME280;56080;47.594;19.116;2023-03-19T10:26:34;100578;;;12.14;37.60
69027;BME280;56080;47.594;19.116;2023-03-19T10:36:34;100574;;;12.00;39.05
69027;BME280;56080;47.594;19.116;2023-03-19T10:46:38;100564;;;12.24;39.05
69027;BME280;56080;47.594;19.116;2023-03-19T10:56:35;100544;;;12.30;39.48
69027;BME280;56080;47.594;19.116;2023-03-19T11:06:38;100535;;;12.31;39.69
69027;BME280;56080;47.594;19.116;2023-03-19T11:26:38;100501;;;12.97;38.14
69027;BME280;56080;47.594;19.116;2023-03-19T11:36:43;100486;;;13.13;38.49
69027;BME280;56080;47.594;19.116;2023-03-19T11:56:50;100456;;;13.28;36.39
69027;BME280;56080;47.594;19.116;2023-03-19T12:06:49;100449;;;13.21;35.74
69027;BME280;56080;47.594;19.116;2023-03-19T12:36:51;100401;;;13.59;34.78
69027;BME280;56080;47.594;19.116;2023-03-19T12:46:50;100379;;;14.12;33.66
69027;BME280;56080;47.594;19.116;2023-03-19T13:26:52;100331;;;14.63;32.80
69027;BME280;56080;47.594;19.116;2023-03-19T13:36:56;100325;;;14.65;32.76
69027;BME280;56080;47.594;19.116;2023-03-19T13:46:55;100312;;;14.69;32.68
69027;BME280;56080;47.594;19.116;2023-03-19T14:06:58;100288;;;14.78;32.20
69027;BME280;56080;47.594;19.116;2023-03-19T14:17:01;100272;;;14.73;32.84
69027;BME280;56080;47.594;19.116;2023-03-19T14:27:01;100281;;;14.82;32.67
69027;BME280;56080;47.594;19.116;2023-03-19T14:37:03;100271;;;14.94;32.68
69027;BME280;56080;47.594;19.116;2023-03-19T14:57:05;100277;;;15.01;32.76
69027;BME280;56080;47.594;19.116;2023-03-19T15:07:03;100268;;;15.14;32.87
69027;BME280;56080;47.594;19.116;2023-03-19T15:27:21;100272;;;15.08;32.92
69027;BME280;56080;47.594;19.116;2023-03-19T15:37:08;100271;;;15.06;32.64
69027;BME280;56080;47.594;19.116;2023-03-19T15:47:10;100275;;;14.92;32.79
69027;BME280;56080;47.594;19.116;2023-03-19T15:57:10;100279;;;14.79;32.82
69027;BME280;56080;47.594;19.116;2023-03-19T16:07:20;100298;;;14.71;33.22
69027;BME280;56080;47.594;19.116;2023-03-19T16:17:14;100301;;;14.65;33.58
69027;BME280;56080;47.594;19.116;2023-03-19T16:27:13;100304;;;14.54;33.81
69027;BME280;56080;47.594;19.116;2023-03-19T16:47:15;100312;;;14.21;34.98
69027;BME280;56080;47.594;19.116;2023-03-19T16:57:16;100324;;;14.02;35.68
69027;BME280;56080;47.594;19.116;2023-03-19T17:07:19;100329;;;13.71;36.73
69027;BME280;56080;47.594;19.116;2023-03-19T17:17:22;100334;;;13.51;37.54
69027;BME280;56080;47.594;19.116;2023-03-19T17:27:19;100344;;;13.38;37.96
69027;BME280;56080;47.594;19.116;2023-03-19T17:37:20;100340;;;13.37;38.08
69027;BME280;56080;47.594;19.116;2023-03-19T17:47:21;100342;;;13.36;38.08
69027;BME280;56080;47.594;19.116;2023-03-19T17:57:26;100346;;;13.34;38.51
69027;BME280;56080;47.594;19.116;2023-03-19T18:07:26;100352;;;13.22;38.55
69027;BME280;56080;47.594;19.116;2023-03-19T18:27:29;100334;;;12.99;38.83
69027;BME280;56080;47.594;19.116;2023-03-19T18:37:30;100345;;;12.97;39.15
69027;BME280;56080;47.594;19.116;2023-03-19T18:47:33;100344;;;12.88;39.33
69027;BME280;56080;47.594;19.116;2023-03-19T18:57:28;100352;;;12.89;39.83
69027;BME280;56080;47.594;19.116;2023-03-19T19:07:30;100355;;;12.82;40.74
69027;BME280;56080;47.594;19.116;2023-03-19T19:17:34;100358;;;12.76;41.47
69027;BME280;56080;47.594;19.116;2023-03-19T19:27:33;100362;;;12.56;42.06
69027;BME280;56080;47.594;19.116;2023-03-19T19:37:33;100365;;;12.50;42.16
69027;BME280;56080;47.594;19.116;2023-03-19T19:47:35;100377;;;12.33;42.90
69027;BME280;56080;47.594;19.116;2023-03-19T19:57:37;100377;;;12.21;43.51
69027;BME280;56080;47.594;19.116;2023-03-19T20:07:38;100374;;;12.07;44.00
69027;BME280;56080;47.594;19.116;2023-03-19T20:17:37;100380;;;12.03;44.35
69027;BME280;56080;47.594;19.116;2023-03-19T20:27:42;100375;;;12.02;44.63
69027;BME280;56080;47.594;19.116;2023-03-19T20:37:39;100375;;;11.87;44.68
69027;BME280;56080;47.594;19.116;2023-03-19T20:47:41;100376;;;11.61;45.47
69027;BME280;56080;47.594;19.116;2023-03-19T20:57:41;100373;;;11.52;45.73
69027;BME280;56080;47.594;19.116;2023-03-19T21:07:45;100367;;;11.05;47.18
69027;BME280;56080;47.594;19.116;2023-03-19T21:17:43;100364;;;11.18;47.36
69027;BME280;56080;47.594;19.116;2023-03-19T21:27:46;100365;;;11.06;48.03
69027;BME280;56080;47.594;19.116;2023-03-19T21:37:45;100362;;;10.95;48.22
69027;BME280;56080;47.594;19.116;2023-03-19T21:47:45;100357;;;10.99;48.39
69027;BME280;56080;47.594;19.116;2023-03-19T22:07:47;100355;;;10.72;50.06
69027;BME280;56080;47.594;19.116;2023-03-19T22:17:48;100348;;;10.46;50.98
69027;BME280;56080;47.594;19.116;2023-03-19T22:27:48;100332;;;10.71;50.70
69027;BME280;56080;47.594;19.116;2023-03-19T22:37:49;100331;;;10.77;51.04
69027;BME280;56080;47.594;19.116;2023-03-19T22:47:50;100329;;;10.46;51.57
69027;BME280;56080;47.594;19.116;2023-03-19T22:57:51;100319;;;10.61;51.03
69027;BME280;56080;47.594;19.116;2023-03-19T23:07:52;100323;;;10.36;51.43
69027;BME280;56080;47.594;19.116;2023-03-19T23:17:55;100317;;;10.26;51.95
69027;BME280;56080;47.594;19.116;2023-03-19T23:27:55;100314;;;9.99;53.14
69027;BME280;56080;47.594;19.116;2023-03-19T23:37:56;100310;;;10.07;53.33
69027;BME280;56080;47.594;19.116;2023-03-19T23:47:56;100300;;;10.17;52.58
69027;BME280;56080;47.594;19.116;2023-03-19T23:57:57;100294;;;10.14;52.19
